Airfield :
LOGIN :

Register | Disclaimer

   EN    FR    IT 

 










Legend :    VFR   Marginal VFR   IFR   Intensive IFR   Very Intensive IFR
Visi :
Ceiling :
>= 8 km
>= 3000ft
5 to 8 km
1000 to 3000 ft
1500m to 5 km
500 to 1000 ft
800 to 1500m
200 to 500 ft
< 800m
< 200 ft
Symbols :   Thunderstorms  Fog  Heavy snow  Heavy precipitations  Wind > 20 kt
SIGMETs :     Misc.  Thunderstorms  Icing  Turbulence  Mountain Waves  Volcanic Ashes






- Airport Elevation : 256 ft
- IATA code : GOJ


UWGG - Nizhny Novgorod International

CURRENT METAR :
  • 041830Z 28002MPS 9999 SCT033 07/M08 Q1015 R18L/090060 NOSIG

EXPIRED METARs :
  • 041800Z 29004MPS 270V340 9999 SCT033 07/M08 Q1014 R18L/090060 NOSIG
  • 041730Z 27002MPS 9999 SCT033 07/M06 Q1014 R18L/090060 NOSIG
  • 041700Z 25002MPS 9999 SCT033 07/M06 Q1014 R18L/090060 TEMPO 27008G15MPS
  • 041630Z 25002MPS 9999 SCT033CB 08/M06 Q1013 R18L/090060 TEMPO 27008G15MPS
  • 041600Z 27003MPS 9999 SCT033CB 08/M07 Q1013 R18L/090060 TEMPO 27008G15MPS
  • 041530Z 25004MPS 9999 SCT033CB 09/M06 Q1012 R18L/090060 TEMPO 27008G15MPS

TAF TAF UWGG
Valid from the 04 at 18:00 until the 05 at 18:00 UTC


041659Z 0418/0518 26003MPS 6000 BKN016 TX06/0512Z TNM02/0504Z
TEMPO 0509/0518 30006G13MPS 3200 -SHRA BKN011CB



MET'MAP, your aeronautical weather chart ! - Copyright ORBIFLY December 2007 - Disclaimer

ORBIFLY MET'MAP TEAM :

Programming & Development : Alexandra Zaïnal
Concept & original design : Baudouin d'Aumeries
Assistance for programming : Marc-Olivier Méhu
Technical & hardware support : Manuel Goepfert

Contact : metmap@orbifly.com




SOURCES & CREDITS :

   NOAA